PWSweather.com
Personal Weather Stations
Station Observations
RRFWEATHER
Rail Road Flat, Rail Road Flat, CA 95248

Rail Road FlatRail Road Flat, CA 95248

Lat: 38.306238, Lon: -120.514548

Elevation: 2808

Station Type: Oregon Scientific WMR-968

http://weather.railroadflat.org

High Low Average
Temperature 0.0°F-17.8°F 0.0°F-17.8°F 0.0°F-17.8°F
Dew Point 0.0°F-17.8°F 0.0°F-17.8°F 0.0°F-17.8°F
Winds Calm Calm Calm Calm Calm Calm
Wind Gusts -- -- --
Humidity 0% 0% 0%
Pressure 0.00 in0.00 in 0.00 in0.00 in -
Precipitation 0.00 in0.00 in - -
Hour Temp Dew Point Humidity Winds Wind Gusts Pressure Precip Precip Rate Daily Precip Total
12:00 AM 88.7°F31.5°C 46.2°F7.9°C 23% 2.7 mph SSE4.3 kmh SSE 2.7 mph4.3 kmh 29.80 in1009.1 mb 0.00 in0.0 mm 0.00 in/hr0.0 mm/hr 0.00 in0.0 mm
12:05 AM 88.5°F31.4°C 46.0°F7.8°C 23% 2.7 mph SSE4.3 kmh SSE 2.7 mph4.3 kmh 29.80 in1009.1 mb 0.00 in0.0 mm 0.00 in/hr0.0 mm/hr 0.00 in0.0 mm
12:10 AM 88.5°F31.4°C 46.0°F7.8°C 23% 2.7 mph SSE4.3 kmh SSE 2.7 mph4.3 kmh 29.80 in1009.1 mb 0.00 in0.0 mm 0.00 in/hr0.0 mm/hr 0.00 in0.0 mm
12:15 AM 88.3°F31.3°C 45.9°F7.7°C 23% 2.7 mph SSE4.3 kmh SSE 2.7 mph4.3 kmh 29.80 in1009.1 mb 0.00 in0.0 mm 0.00 in/hr0.0 mm/hr 0.00 in0.0 mm
12:20 AM 87.8°F31.0°C 45.4°F7.4°C 23% 2.7 mph SSE4.3 kmh SSE 2.7 mph4.3 kmh 29.80 in1009.1 mb 0.00 in0.0 mm 0.00 in/hr0.0 mm/hr 0.00 in0.0 mm
12:25 AM 87.3°F30.7°C 46.1°F7.8°C 24% 2.7 mph SSE4.3 kmh SSE 2.7 mph4.3 kmh 29.80 in1009.1 mb 0.00 in0.0 mm 0.00 in/hr0.0 mm/hr 0.00 in0.0 mm
12:30 AM 86.9°F30.5°C 45.8°F7.7°C 24% 2.7 mph SSE4.3 kmh SSE 2.7 mph4.3 kmh 29.80 in1009.1 mb 0.00 in0.0 mm 0.00 in/hr0.0 mm/hr 0.00 in0.0 mm
12:35 AM 86.9°F30.5°C 45.8°F7.7°C 24% 2.7 mph SSE4.3 kmh SSE 2.7 mph4.3 kmh 29.80 in1009.1 mb 0.00 in0.0 mm 0.00 in/hr0.0 mm/hr 0.00 in0.0 mm
12:40 AM 86.9°F30.5°C 45.8°F7.7°C 24% 2.7 mph SSE4.3 kmh SSE 2.7 mph4.3 kmh 29.80 in1009.1 mb 0.00 in0.0 mm 0.00 in/hr0.0 mm/hr 0.00 in0.0 mm
12:45 AM 87.3°F30.7°C 46.1°F7.8°C 24% 2.7 mph SSE4.3 kmh SSE 2.7 mph4.3 kmh 29.80 in1009.1 mb 0.00 in0.0 mm 0.00 in/hr0.0 mm/hr 0.00 in0.0 mm
12:50 AM 87.3°F30.7°C 46.1°F7.8°C 24% 2.7 mph SSE4.3 kmh SSE 2.7 mph4.3 kmh 29.80 in1009.1 mb 0.00 in0.0 mm 0.00 in/hr0.0 mm/hr 0.00 in0.0 mm
12:55 AM 86.9°F30.5°C 45.8°F7.7°C 24% 2.7 mph SSE4.3 kmh SSE 2.7 mph4.3 kmh 29.80 in1009.1 mb 0.00 in0.0 mm 0.00 in/hr0.0 mm/hr 0.00 in0.0 mm
01:00 AM 86.0°F30.0°C 45.0°F7.2°C 24% 2.7 mph SSE4.3 kmh SSE 2.7 mph4.3 kmh 29.80 in1009.1 mb 0.00 in0.0 mm 0.00 in/hr0.0 mm/hr 0.00 in0.0 mm
01:05 AM 85.3°F29.6°C 44.4°F6.9°C 24% 2.7 mph SSE4.3 kmh SSE 2.7 mph4.3 kmh 29.80 in1009.1 mb 0.00 in0.0 mm 0.00 in/hr0.0 mm/hr 0.00 in0.0 mm
01:10 AM 85.1°F29.5°C 44.3°F6.8°C 24% 2.7 mph SSE4.3 kmh SSE 2.7 mph4.3 kmh 29.80 in1009.1 mb 0.00 in0.0 mm 0.00 in/hr0.0 mm/hr 0.00 in0.0 mm
01:15 AM 84.4°F29.1°C 43.7°F6.5°C 24% 2.7 mph SSE4.3 kmh SSE 2.7 mph4.3 kmh 29.80 in1009.1 mb 0.00 in0.0 mm 0.00 in/hr0.0 mm/hr 0.00 in0.0 mm
01:20 AM 84.0°F28.9°C 43.4°F6.3°C 24% 2.7 mph SSE4.3 kmh SSE 2.7 mph4.3 kmh 29.80 in1009.1 mb 0.00 in0.0 mm 0.00 in/hr0.0 mm/hr 0.00 in0.0 mm
01:25 AM 83.8°F28.8°C 43.2°F6.2°C 24% 2.7 mph SSE4.3 kmh SSE 2.7 mph4.3 kmh 29.80 in1009.1 mb 0.00 in0.0 mm 0.00 in/hr0.0 mm/hr 0.00 in0.0 mm
01:30 AM 83.7°F28.7°C 43.1°F6.2°C 24% 2.7 mph SSE4.3 kmh SSE 2.7 mph4.3 kmh 29.80 in1009.1 mb 0.00 in0.0 mm 0.00 in/hr0.0 mm/hr 0.00 in0.0 mm
01:35 AM 83.7°F28.7°C 43.1°F6.2°C 24% 2.7 mph SSE4.3 kmh SSE 2.7 mph4.3 kmh 29.80 in1009.1 mb 0.00 in0.0 mm 0.00 in/hr0.0 mm/hr 0.00 in0.0 mm
01:40 AM 83.5°F28.6°C 42.9°F6.1°C 24% 2.7 mph SSE4.3 kmh SSE 2.7 mph4.3 kmh 29.80 in1009.1 mb 0.00 in0.0 mm 0.00 in/hr0.0 mm/hr 0.00 in0.0 mm
01:45 AM 83.1°F28.4°C 42.6°F5.9°C 24% 2.7 mph SSE4.3 kmh SSE 2.7 mph4.3 kmh 29.80 in1009.1 mb 0.00 in0.0 mm 0.00 in/hr0.0 mm/hr 0.00 in0.0 mm
01:50 AM 82.6°F28.1°C 42.2°F5.7°C 24% 2.7 mph SSE4.3 kmh SSE 2.7 mph4.3 kmh 29.80 in1009.1 mb 0.00 in0.0 mm 0.00 in/hr0.0 mm/hr 0.00 in0.0 mm
01:55 AM 82.2°F27.9°C 42.9°F6.1°C 25% 2.7 mph SSE4.3 kmh SSE 2.7 mph4.3 kmh 29.80 in1009.1 mb 0.00 in0.0 mm 0.00 in/hr0.0 mm/hr 0.00 in0.0 mm
02:00 AM 81.7°F27.6°C 42.5°F5.8°C 25% 2.7 mph SSE4.3 kmh SSE 2.7 mph4.3 kmh 29.80 in1009.1 mb 0.00 in0.0 mm 0.00 in/hr0.0 mm/hr 0.00 in0.0 mm
02:05 AM 81.3°F27.4°C 42.2°F5.7°C 25% 2.7 mph SSE4.3 kmh SSE 2.7 mph4.3 kmh 29.80 in1009.1 mb 0.00 in0.0 mm 0.00 in/hr0.0 mm/hr 0.00 in0.0 mm
02:10 AM 81.0°F27.2°C 41.9°F5.5°C 25% 2.7 mph SSE4.3 kmh SSE 2.7 mph4.3 kmh 29.80 in1009.1 mb 0.00 in0.0 mm 0.00 in/hr0.0 mm/hr 0.00 in0.0 mm
02:15 AM 80.6°F27.0°C 41.6°F5.3°C 25% 2.7 mph SSE4.3 kmh SSE 2.7 mph4.3 kmh 29.80 in1009.1 mb 0.00 in0.0 mm 0.00 in/hr0.0 mm/hr 0.00 in0.0 mm
02:20 AM 80.1°F26.7°C 41.1°F5.1°C 25% 2.7 mph SSE4.3 kmh SSE 2.7 mph4.3 kmh 29.80 in1009.1 mb 0.00 in0.0 mm 0.00 in/hr0.0 mm/hr 0.00 in0.0 mm
02:25 AM 79.7°F26.5°C 40.8°F4.9°C 25% 2.7 mph SSE4.3 kmh SSE 2.7 mph4.3 kmh 29.80 in1009.1 mb 0.00 in0.0 mm 0.00 in/hr0.0 mm/hr 0.00 in0.0 mm
02:30 AM 79.3°F26.3°C 40.5°F4.7°C 25% 2.7 mph SSE4.3 kmh SSE 2.7 mph4.3 kmh 29.80 in1009.1 mb 0.00 in0.0 mm 0.00 in/hr0.0 mm/hr 0.00 in0.0 mm
02:35 AM 78.8°F26.0°C 40.0°F4.4°C 25% 2.7 mph SSE4.3 kmh SSE 2.7 mph4.3 kmh 29.80 in1009.1 mb 0.00 in0.0 mm 0.00 in/hr0.0 mm/hr 0.00 in0.0 mm
02:40 AM 78.4°F25.8°C 40.8°F4.9°C 26% 2.7 mph SSE4.3 kmh SSE 2.7 mph4.3 kmh 29.80 in1009.1 mb 0.00 in0.0 mm 0.00 in/hr0.0 mm/hr 0.00 in0.0 mm
02:45 AM 78.1°F25.6°C 40.4°F4.7°C 26% 2.7 mph SSE4.3 kmh SSE 2.7 mph4.3 kmh 29.80 in1009.1 mb 0.00 in0.0 mm 0.00 in/hr0.0 mm/hr 0.00 in0.0 mm
02:50 AM 77.5°F25.3°C 40.0°F4.4°C 26% 2.7 mph SSE4.3 kmh SSE 2.7 mph4.3 kmh 29.80 in1009.1 mb 0.00 in0.0 mm 0.00 in/hr0.0 mm/hr 0.00 in0.0 mm
02:55 AM 77.4°F25.2°C 39.8°F4.3°C 26% 2.7 mph SSE4.3 kmh SSE 2.7 mph4.3 kmh 29.80 in1009.1 mb 0.00 in0.0 mm 0.00 in/hr0.0 mm/hr 0.00 in0.0 mm
03:00 AM 77.0°F25.0°C 39.5°F4.2°C 26% 2.7 mph SSE4.3 kmh SSE 2.7 mph4.3 kmh 29.80 in1009.1 mb 0.00 in0.0 mm 0.00 in/hr0.0 mm/hr 0.00 in0.0 mm
03:05 AM 76.8°F24.9°C 39.4°F4.1°C 26% 2.7 mph SSE4.3 kmh SSE 2.7 mph4.3 kmh 29.80 in1009.1 mb 0.00 in0.0 mm 0.00 in/hr0.0 mm/hr 0.00 in0.0 mm
03:10 AM 76.5°F24.7°C 39.1°F3.9°C 26% 2.7 mph SSE4.3 kmh SSE 2.7 mph4.3 kmh 29.80 in1009.1 mb 0.00 in0.0 mm 0.00 in/hr0.0 mm/hr 0.00 in0.0 mm
03:15 AM 76.1°F24.5°C 38.8°F3.8°C 26% 2.7 mph SSE4.3 kmh SSE 2.7 mph4.3 kmh 29.80 in1009.1 mb 0.00 in0.0 mm 0.00 in/hr0.0 mm/hr 0.00 in0.0 mm
03:20 AM 75.9°F24.4°C 38.6°F3.7°C 26% 2.7 mph SSE4.3 kmh SSE 2.7 mph4.3 kmh 29.80 in1009.1 mb 0.00 in0.0 mm 0.00 in/hr0.0 mm/hr 0.00 in0.0 mm
03:25 AM 75.7°F24.3°C 38.5°F3.6°C 26% 2.7 mph SSE4.3 kmh SSE 2.7 mph4.3 kmh 29.80 in1009.1 mb 0.00 in0.0 mm 0.00 in/hr0.0 mm/hr 0.00 in0.0 mm
03:30 AM 75.7°F24.3°C 38.5°F3.6°C 26% 2.7 mph SSE4.3 kmh SSE 2.7 mph4.3 kmh 29.80 in1009.1 mb 0.00 in0.0 mm 0.00 in/hr0.0 mm/hr 0.00 in0.0 mm
03:35 AM 75.7°F24.3°C 38.5°F3.6°C 26% 2.7 mph SSE4.3 kmh SSE 2.7 mph4.3 kmh 29.80 in1009.1 mb 0.00 in0.0 mm 0.00 in/hr0.0 mm/hr 0.00 in0.0 mm
03:40 AM 75.7°F24.3°C 38.5°F3.6°C 26% 2.7 mph SSE4.3 kmh SSE 2.7 mph4.3 kmh 29.80 in1009.1 mb 0.00 in0.0 mm 0.00 in/hr0.0 mm/hr 0.00 in0.0 mm
03:45 AM 75.4°F24.1°C 38.2°F3.4°C 26% 2.7 mph SSE4.3 kmh SSE 2.7 mph4.3 kmh 29.80 in1009.1 mb 0.00 in0.0 mm 0.00 in/hr0.0 mm/hr 0.00 in0.0 mm
03:50 AM 75.2°F24.0°C 38.0°F3.3°C 26% 2.7 mph SSE4.3 kmh SSE 2.7 mph4.3 kmh 29.80 in1009.1 mb 0.00 in0.0 mm 0.00 in/hr0.0 mm/hr 0.00 in0.0 mm
03:55 AM 74.8°F23.8°C 37.7°F3.2°C 26% 2.7 mph SSE4.3 kmh SSE 2.7 mph4.3 kmh 29.80 in1009.1 mb 0.00 in0.0 mm 0.00 in/hr0.0 mm/hr 0.00 in0.0 mm
04:00 AM 74.5°F23.6°C 37.4°F3.0°C 26% 2.7 mph SSE4.3 kmh SSE 2.7 mph4.3 kmh 29.80 in1009.1 mb 0.00 in0.0 mm 0.00 in/hr0.0 mm/hr 0.00 in0.0 mm
04:05 AM 74.1°F23.4°C 39.9°F4.4°C 29% 2.7 mph SSE4.3 kmh SSE 2.7 mph4.3 kmh 29.80 in1009.1 mb 0.00 in0.0 mm 0.00 in/hr0.0 mm/hr 0.00 in0.0 mm
04:10 AM 74.1°F23.4°C 39.9°F4.4°C 29% 2.7 mph SSE4.3 kmh SSE 2.7 mph4.3 kmh 29.80 in1009.1 mb 0.00 in0.0 mm 0.00 in/hr0.0 mm/hr 0.00 in0.0 mm
04:15 AM 73.9°F23.3°C 39.7°F4.3°C 29% 2.7 mph SSE4.3 kmh SSE 2.7 mph4.3 kmh 29.80 in1009.1 mb 0.00 in0.0 mm 0.00 in/hr0.0 mm/hr 0.00 in0.0 mm
04:20 AM 73.8°F23.2°C 39.6°F4.2°C 29% 2.7 mph SSE4.3 kmh SSE 2.7 mph4.3 kmh 29.83 in1010.2 mb 0.00 in0.0 mm 0.00 in/hr0.0 mm/hr 0.00 in0.0 mm
04:25 AM 73.4°F23.0°C 39.2°F4.0°C 29% 2.7 mph SSE4.3 kmh SSE 2.7 mph4.3 kmh 29.83 in1010.2 mb 0.00 in0.0 mm 0.00 in/hr0.0 mm/hr 0.00 in0.0 mm
04:30 AM 72.9°F22.7°C 38.8°F3.8°C 29% 2.7 mph SSE4.3 kmh SSE 2.7 mph4.3 kmh 29.83 in1010.2 mb 0.00 in0.0 mm 0.00 in/hr0.0 mm/hr 0.00 in0.0 mm
04:35 AM 72.0°F22.2°C 38.0°F3.3°C 29% 2.7 mph SSE4.3 kmh SSE 2.7 mph4.3 kmh 29.83 in1010.2 mb 0.00 in0.0 mm 0.00 in/hr0.0 mm/hr 0.00 in0.0 mm
04:40 AM 71.6°F22.0°C 37.7°F3.2°C 29% 2.7 mph SSE4.3 kmh SSE 2.7 mph4.3 kmh 29.83 in1010.2 mb 0.00 in0.0 mm 0.00 in/hr0.0 mm/hr 0.00 in0.0 mm
04:45 AM 71.2°F21.8°C 38.2°F3.4°C 30% 2.7 mph SSE4.3 kmh SSE 2.7 mph4.3 kmh 29.83 in1010.2 mb 0.00 in0.0 mm 0.00 in/hr0.0 mm/hr 0.00 in0.0 mm
04:50 AM 71.1°F21.7°C 38.1°F3.4°C 30% 2.7 mph SSE4.3 kmh SSE 2.7 mph4.3 kmh 29.83 in1010.2 mb 0.00 in0.0 mm 0.00 in/hr0.0 mm/hr 0.00 in0.0 mm
04:55 AM 70.9°F21.6°C 37.9°F3.3°C 30% 2.7 mph SSE4.3 kmh SSE 2.7 mph4.3 kmh 29.83 in1010.2 mb 0.00 in0.0 mm 0.00 in/hr0.0 mm/hr 0.00 in0.0 mm
05:00 AM 70.7°F21.5°C 37.8°F3.2°C 30% 2.7 mph SSE4.3 kmh SSE 2.7 mph4.3 kmh 29.83 in1010.2 mb 0.00 in0.0 mm 0.00 in/hr0.0 mm/hr 0.00 in0.0 mm
05:05 AM 70.3°F21.3°C 37.5°F3.1°C 30% 2.7 mph SSE4.3 kmh SSE 2.7 mph4.3 kmh 29.83 in1010.2 mb 0.00 in0.0 mm 0.00 in/hr0.0 mm/hr 0.00 in0.0 mm
05:10 AM 70.3°F21.3°C 37.5°F3.1°C 30% 2.7 mph SSE4.3 kmh SSE 2.7 mph4.3 kmh 29.83 in1010.2 mb 0.00 in0.0 mm 0.00 in/hr0.0 mm/hr 0.00 in0.0 mm
05:15 AM 70.2°F21.2°C 37.3°F2.9°C 30% 2.7 mph SSE4.3 kmh SSE 2.7 mph4.3 kmh 29.83 in1010.2 mb 0.00 in0.0 mm 0.00 in/hr0.0 mm/hr 0.00 in0.0 mm
05:20 AM 70.2°F21.2°C 37.3°F2.9°C 30% 2.7 mph SSE4.3 kmh SSE 2.7 mph4.3 kmh 29.80 in1009.1 mb 0.00 in0.0 mm 0.00 in/hr0.0 mm/hr 0.00 in0.0 mm
05:25 AM 70.3°F21.3°C 37.5°F3.1°C 30% 2.7 mph SSE4.3 kmh SSE 2.7 mph4.3 kmh 29.80 in1009.1 mb 0.00 in0.0 mm 0.00 in/hr0.0 mm/hr 0.00 in0.0 mm
05:30 AM 70.7°F21.5°C 37.8°F3.2°C 30% 2.7 mph SSE4.3 kmh SSE 2.7 mph4.3 kmh 29.80 in1009.1 mb 0.00 in0.0 mm 0.00 in/hr0.0 mm/hr 0.00 in0.0 mm
05:35 AM 70.7°F21.5°C 37.8°F3.2°C 30% 2.7 mph SSE4.3 kmh SSE 2.7 mph4.3 kmh 29.80 in1009.1 mb 0.00 in0.0 mm 0.00 in/hr0.0 mm/hr 0.00 in0.0 mm
05:40 AM 70.5°F21.4°C 37.6°F3.1°C 30% 2.7 mph SSE4.3 kmh SSE 2.7 mph4.3 kmh 29.80 in1009.1 mb 0.00 in0.0 mm 0.00 in/hr0.0 mm/hr 0.00 in0.0 mm
05:45 AM 70.5°F21.4°C 37.6°F3.1°C 30% 2.7 mph SSE4.3 kmh SSE 2.7 mph4.3 kmh 29.80 in1009.1 mb 0.00 in0.0 mm 0.00 in/hr0.0 mm/hr 0.00 in0.0 mm
05:50 AM 70.3°F21.3°C 37.5°F3.1°C 30% 2.7 mph SSE4.3 kmh SSE 2.7 mph4.3 kmh 29.80 in1009.1 mb 0.00 in0.0 mm 0.00 in/hr0.0 mm/hr 0.00 in0.0 mm
05:55 AM 70.3°F21.3°C 37.5°F3.1°C 30% 2.7 mph SSE4.3 kmh SSE 2.7 mph4.3 kmh 29.80 in1009.1 mb 0.00 in0.0 mm 0.00 in/hr0.0 mm/hr 0.00 in0.0 mm
06:00 AM 70.2°F21.2°C 37.3°F2.9°C 30% 2.7 mph SSE4.3 kmh SSE 2.7 mph4.3 kmh 29.80 in1009.1 mb 0.00 in0.0 mm 0.00 in/hr0.0 mm/hr 0.00 in0.0 mm
06:05 AM 70.2°F21.2°C 37.3°F2.9°C 30% 2.7 mph SSE4.3 kmh SSE 2.7 mph4.3 kmh 29.80 in1009.1 mb 0.00 in0.0 mm 0.00 in/hr0.0 mm/hr 0.00 in0.0 mm
06:10 AM 70.0°F21.1°C 37.2°F2.9°C 30% 2.7 mph SSE4.3 kmh SSE 2.7 mph4.3 kmh 29.80 in1009.1 mb 0.00 in0.0 mm 0.00 in/hr0.0 mm/hr 0.00 in0.0 mm
06:15 AM 70.0°F21.1°C 37.2°F2.9°C 30% 2.7 mph SSE4.3 kmh SSE 2.7 mph4.3 kmh 29.80 in1009.1 mb 0.00 in0.0 mm 0.00 in/hr0.0 mm/hr 0.00 in0.0 mm
06:20 AM 69.8°F21.0°C 37.0°F2.8°C 30% 2.7 mph SSE4.3 kmh SSE 2.7 mph4.3 kmh 29.80 in1009.1 mb 0.00 in0.0 mm 0.00 in/hr0.0 mm/hr 0.00 in0.0 mm
06:25 AM 69.6°F20.9°C 36.8°F2.7°C 30% 2.7 mph SSE4.3 kmh SSE 2.7 mph4.3 kmh 29.80 in1009.1 mb 0.00 in0.0 mm 0.00 in/hr0.0 mm/hr 0.00 in0.0 mm
06:30 AM 69.4°F20.8°C 36.7°F2.6°C 30% 2.7 mph SSE4.3 kmh SSE 2.7 mph4.3 kmh 29.80 in1009.1 mb 0.00 in0.0 mm 0.00 in/hr0.0 mm/hr 0.00 in0.0 mm
06:35 AM 69.3°F20.7°C 36.5°F2.5°C 30% 2.7 mph SSE4.3 kmh SSE 2.7 mph4.3 kmh 29.80 in1009.1 mb 0.00 in0.0 mm 0.00 in/hr0.0 mm/hr 0.00 in0.0 mm
06:40 AM 69.1°F20.6°C 36.4°F2.4°C 30% 2.7 mph SSE4.3 kmh SSE 2.7 mph4.3 kmh 29.80 in1009.1 mb 0.00 in0.0 mm 0.00 in/hr0.0 mm/hr 0.00 in0.0 mm
06:45 AM 69.1°F20.6°C 36.4°F2.4°C 30% 2.7 mph SSE4.3 kmh SSE 2.7 mph4.3 kmh 29.80 in1009.1 mb 0.00 in0.0 mm 0.00 in/hr0.0 mm/hr 0.00 in0.0 mm
06:50 AM 69.1°F20.6°C 36.4°F2.4°C 30% 2.7 mph SSE4.3 kmh SSE 2.7 mph4.3 kmh 29.80 in1009.1 mb 0.00 in0.0 mm 0.00 in/hr0.0 mm/hr 0.00 in0.0 mm
06:55 AM 69.1°F20.6°C 36.4°F2.4°C 30% 2.7 mph SSE4.3 kmh SSE 2.7 mph4.3 kmh 29.80 in1009.1 mb 0.00 in0.0 mm 0.00 in/hr0.0 mm/hr 0.00 in0.0 mm
06:59 AM 69.1°F20.6°C 36.4°F2.4°C 30% 2.7 mph SSE4.3 kmh SSE 2.7 mph4.3 kmh 29.80 in1009.1 mb 0.00 in0.0 mm 0.00 in/hr0.0 mm/hr 0.00 in0.0 mm
07:05 AM 69.1°F20.6°C 36.4°F2.4°C 30% 2.7 mph SSE4.3 kmh SSE 2.7 mph4.3 kmh 29.80 in1009.1 mb 0.00 in0.0 mm 0.00 in/hr0.0 mm/hr 0.00 in0.0 mm
07:10 AM 68.7°F20.4°C 36.1°F2.3°C 30% 2.7 mph SSE4.3 kmh SSE 2.7 mph4.3 kmh 29.80 in1009.1 mb 0.00 in0.0 mm 0.00 in/hr0.0 mm/hr 0.00 in0.0 mm
07:15 AM 68.2°F20.1°C 35.6°F2.0°C 30% 2.7 mph SSE4.3 kmh SSE 2.7 mph4.3 kmh 29.80 in1009.1 mb 0.00 in0.0 mm 0.00 in/hr0.0 mm/hr 0.00 in0.0 mm
07:20 AM 68.0°F20.0°C 35.4°F1.9°C 30% Calm Calm -- 29.80 in1009.1 mb 0.00 in0.0 mm 0.00 in/hr0.0 mm/hr 0.00 in0.0 mm
07:25 AM 68.2°F20.1°C 35.6°F2.0°C 30% Calm Calm -- 29.80 in1009.1 mb 0.00 in0.0 mm 0.00 in/hr0.0 mm/hr 0.00 in0.0 mm
07:30 AM 68.5°F20.3°C 35.9°F2.2°C 30% Calm Calm -- 29.80 in1009.1 mb 0.00 in0.0 mm 0.00 in/hr0.0 mm/hr 0.00 in0.0 mm
07:35 AM 68.7°F20.4°C 36.1°F2.3°C 30% Calm Calm -- 29.80 in1009.1 mb 0.00 in0.0 mm 0.00 in/hr0.0 mm/hr 0.00 in0.0 mm
07:40 AM 68.9°F20.5°C 36.2°F2.3°C 30% Calm Calm -- 29.80 in1009.1 mb 0.00 in0.0 mm 0.00 in/hr0.0 mm/hr 0.00 in0.0 mm
07:45 AM 68.9°F20.5°C 36.2°F2.3°C 30% Calm Calm -- 29.80 in1009.1 mb 0.00 in0.0 mm 0.00 in/hr0.0 mm/hr 0.00 in0.0 mm
07:50 AM 68.7°F20.4°C 36.1°F2.3°C 30% Calm Calm -- 29.80 in1009.1 mb 0.00 in0.0 mm 0.00 in/hr0.0 mm/hr 0.00 in0.0 mm
07:55 AM 68.7°F20.4°C 36.1°F2.3°C 30% Calm Calm -- 29.80 in1009.1 mb 0.00 in0.0 mm 0.00 in/hr0.0 mm/hr 0.00 in0.0 mm
08:00 AM 68.7°F20.4°C 36.1°F2.3°C 30% Calm Calm -- 29.80 in1009.1 mb 0.00 in0.0 mm 0.00 in/hr0.0 mm/hr 0.00 in0.0 mm
08:05 AM 68.7°F20.4°C 36.1°F2.3°C 30% Calm Calm -- 29.80 in1009.1 mb 0.00 in0.0 mm 0.00 in/hr0.0 mm/hr 0.00 in0.0 mm
08:10 AM 68.7°F20.4°C 36.1°F2.3°C 30% Calm Calm -- 29.80 in1009.1 mb 0.00 in0.0 mm 0.00 in/hr0.0 mm/hr 0.00 in0.0 mm
08:15 AM 68.7°F20.4°C 36.1°F2.3°C 30% Calm Calm -- 29.80 in1009.1 mb 0.00 in0.0 mm 0.00 in/hr0.0 mm/hr 0.00 in0.0 mm
08:20 AM 68.9°F20.5°C 36.2°F2.3°C 30% Calm Calm -- 29.80 in1009.1 mb 0.00 in0.0 mm 0.00 in/hr0.0 mm/hr 0.00 in0.0 mm
08:25 AM 68.9°F20.5°C 36.2°F2.3°C 30% Calm Calm -- 29.80 in1009.1 mb 0.00 in0.0 mm 0.00 in/hr0.0 mm/hr 0.00 in0.0 mm
08:30 AM 69.1°F20.6°C 36.4°F2.4°C 30% Calm Calm -- 29.80 in1009.1 mb 0.00 in0.0 mm 0.00 in/hr0.0 mm/hr 0.00 in0.0 mm
08:35 AM 69.1°F20.6°C 36.4°F2.4°C 30% Calm Calm -- 29.80 in1009.1 mb 0.00 in0.0 mm 0.00 in/hr0.0 mm/hr 0.00 in0.0 mm
08:40 AM 69.1°F20.6°C 36.4°F2.4°C 30% Calm Calm -- 29.80 in1009.1 mb 0.00 in0.0 mm 0.00 in/hr0.0 mm/hr 0.00 in0.0 mm
08:45 AM 68.9°F20.5°C 36.2°F2.3°C 30% Calm Calm -- 29.80 in1009.1 mb 0.00 in0.0 mm 0.00 in/hr0.0 mm/hr 0.00 in0.0 mm
08:50 AM 68.7°F20.4°C 36.1°F2.3°C 30% Calm Calm -- 29.80 in1009.1 mb 0.00 in0.0 mm 0.00 in/hr0.0 mm/hr 0.00 in0.0 mm
08:55 AM 68.5°F20.3°C 35.9°F2.2°C 30% Calm Calm -- 29.80 in1009.1 mb 0.00 in0.0 mm 0.00 in/hr0.0 mm/hr 0.00 in0.0 mm
09:00 AM 68.4°F20.2°C 35.8°F2.1°C 30% Calm Calm -- 29.80 in1009.1 mb 0.00 in0.0 mm 0.00 in/hr0.0 mm/hr 0.00 in0.0 mm
09:05 AM 68.2°F20.1°C 35.6°F2.0°C 30% Calm Calm -- 29.80 in1009.1 mb 0.00 in0.0 mm 0.00 in/hr0.0 mm/hr 0.00 in0.0 mm
09:10 AM 68.0°F20.0°C 35.4°F1.9°C 30% Calm Calm -- 29.80 in1009.1 mb 0.00 in0.0 mm 0.00 in/hr0.0 mm/hr 0.00 in0.0 mm
09:15 AM 67.8°F19.9°C 35.3°F1.8°C 30% Calm Calm -- 29.80 in1009.1 mb 0.00 in0.0 mm 0.00 in/hr0.0 mm/hr 0.00 in0.0 mm
09:20 AM 67.5°F19.7°C 35.0°F1.7°C 30% Calm Calm -- 29.80 in1009.1 mb 0.00 in0.0 mm 0.00 in/hr0.0 mm/hr 0.00 in0.0 mm
09:25 AM 67.5°F19.7°C 35.0°F1.7°C 30% Calm Calm -- 29.80 in1009.1 mb 0.00 in0.0 mm 0.00 in/hr0.0 mm/hr 0.00 in0.0 mm
09:30 AM 67.5°F19.7°C 35.0°F1.7°C 30% Calm Calm -- 29.80 in1009.1 mb 0.00 in0.0 mm 0.00 in/hr0.0 mm/hr 0.00 in0.0 mm
09:35 AM 67.6°F19.8°C 35.1°F1.7°C 30% Calm Calm -- 29.80 in1009.1 mb 0.00 in0.0 mm 0.00 in/hr0.0 mm/hr 0.00 in0.0 mm
09:40 AM 68.0°F20.0°C 35.4°F1.9°C 30% Calm Calm -- 29.80 in1009.1 mb 0.00 in0.0 mm 0.00 in/hr0.0 mm/hr 0.00 in0.0 mm
09:45 AM 68.2°F20.1°C 35.6°F2.0°C 30% Calm Calm -- 29.80 in1009.1 mb 0.00 in0.0 mm 0.00 in/hr0.0 mm/hr 0.00 in0.0 mm
09:50 AM 68.7°F20.4°C 36.1°F2.3°C 30% Calm Calm -- 29.80 in1009.1 mb 0.00 in0.0 mm 0.00 in/hr0.0 mm/hr 0.00 in0.0 mm
09:55 AM 69.4°F20.8°C 36.7°F2.6°C 30% Calm Calm -- 29.80 in1009.1 mb 0.00 in0.0 mm 0.00 in/hr0.0 mm/hr 0.00 in0.0 mm
10:00 AM 69.8°F21.0°C 37.0°F2.8°C 30% Calm Calm -- 29.80 in1009.1 mb 0.00 in0.0 mm 0.00 in/hr0.0 mm/hr 0.00 in0.0 mm
10:05 AM 70.0°F21.1°C 34.5°F1.4°C 27% Calm Calm -- 29.80 in1009.1 mb 0.00 in0.0 mm 0.00 in/hr0.0 mm/hr 0.00 in0.0 mm
10:10 AM 70.0°F21.1°C 34.5°F1.4°C 27% Calm Calm -- 29.80 in1009.1 mb 0.00 in0.0 mm 0.00 in/hr0.0 mm/hr 0.00 in0.0 mm
10:15 AM 70.0°F21.1°C 34.5°F1.4°C 27% Calm Calm -- 29.80 in1009.1 mb 0.00 in0.0 mm 0.00 in/hr0.0 mm/hr 0.00 in0.0 mm
10:20 AM 70.0°F21.1°C 34.5°F1.4°C 27% Calm Calm -- 29.80 in1009.1 mb 0.00 in0.0 mm 0.00 in/hr0.0 mm/hr 0.00 in0.0 mm
10:25 AM 69.8°F21.0°C 34.3°F1.3°C 27% Calm Calm -- 29.80 in1009.1 mb 0.00 in0.0 mm 0.00 in/hr0.0 mm/hr 0.00 in0.0 mm
10:30 AM 69.8°F21.0°C 34.3°F1.3°C 27% Calm Calm -- 29.80 in1009.1 mb 0.00 in0.0 mm 0.00 in/hr0.0 mm/hr 0.00 in0.0 mm
10:35 AM 69.8°F21.0°C 34.3°F1.3°C 27% Calm Calm -- 29.80 in1009.1 mb 0.00 in0.0 mm 0.00 in/hr0.0 mm/hr 0.00 in0.0 mm
10:40 AM 69.4°F20.8°C 35.0°F1.7°C 28% Calm Calm -- 29.80 in1009.1 mb 0.00 in0.0 mm 0.00 in/hr0.0 mm/hr 0.00 in0.0 mm
10:45 AM 69.1°F20.6°C 34.6°F1.4°C 28% Calm Calm -- 29.80 in1009.1 mb 0.00 in0.0 mm 0.00 in/hr0.0 mm/hr 0.00 in0.0 mm
10:50 AM 68.9°F20.5°C 34.5°F1.4°C 28% Calm Calm -- 29.80 in1009.1 mb 0.00 in0.0 mm 0.00 in/hr0.0 mm/hr 0.00 in0.0 mm
10:55 AM 68.9°F20.5°C 34.5°F1.4°C 28% Calm Calm -- 29.80 in1009.1 mb 0.00 in0.0 mm 0.00 in/hr0.0 mm/hr 0.00 in0.0 mm
11:00 AM 68.7°F20.4°C 34.3°F1.3°C 28% Calm Calm -- 29.80 in1009.1 mb 0.00 in0.0 mm 0.00 in/hr0.0 mm/hr 0.00 in0.0 mm
11:05 AM 68.7°F20.4°C 34.3°F1.3°C 28% Calm Calm -- 29.80 in1009.1 mb 0.00 in0.0 mm 0.00 in/hr0.0 mm/hr 0.00 in0.0 mm
11:10 AM 68.5°F20.3°C 34.2°F1.2°C 28% Calm Calm -- 29.80 in1009.1 mb 0.00 in0.0 mm 0.00 in/hr0.0 mm/hr 0.00 in0.0 mm
11:15 AM 68.5°F20.3°C 34.2°F1.2°C 28% Calm Calm -- 29.80 in1009.1 mb 0.00 in0.0 mm 0.00 in/hr0.0 mm/hr 0.00 in0.0 mm
11:20 AM 68.2°F20.1°C 33.9°F1.1°C 28% Calm Calm -- 29.80 in1009.1 mb 0.00 in0.0 mm 0.00 in/hr0.0 mm/hr 0.00 in0.0 mm
11:25 AM 67.8°F19.9°C 33.6°F0.9°C 28% Calm Calm -- 29.80 in1009.1 mb 0.00 in0.0 mm 0.00 in/hr0.0 mm/hr 0.00 in0.0 mm
11:30 AM 67.8°F19.9°C 33.6°F0.9°C 28% Calm Calm -- 29.80 in1009.1 mb 0.00 in0.0 mm 0.00 in/hr0.0 mm/hr 0.00 in0.0 mm
11:35 AM 67.8°F19.9°C 33.6°F0.9°C 28% Calm Calm -- 29.80 in1009.1 mb 0.00 in0.0 mm 0.00 in/hr0.0 mm/hr 0.00 in0.0 mm
11:40 AM 68.0°F20.0°C 33.7°F0.9°C 28% Calm Calm -- 29.80 in1009.1 mb 0.00 in0.0 mm 0.00 in/hr0.0 mm/hr 0.00 in0.0 mm
11:45 AM 68.2°F20.1°C 33.9°F1.1°C 28% Calm Calm -- 29.80 in1009.1 mb 0.00 in0.0 mm 0.00 in/hr0.0 mm/hr 0.00 in0.0 mm
11:50 AM 68.4°F20.2°C 34.0°F1.1°C 28% Calm Calm -- 29.80 in1009.1 mb 0.00 in0.0 mm 0.00 in/hr0.0 mm/hr 0.00 in0.0 mm
11:55 AM 68.5°F20.3°C 34.2°F1.2°C 28% Calm Calm -- 29.80 in1009.1 mb 0.00 in0.0 mm 0.00 in/hr0.0 mm/hr 0.00 in0.0 mm
12:00 PM 68.5°F20.3°C 34.2°F1.2°C 28% Calm Calm -- 29.80 in1009.1 mb 0.00 in0.0 mm 0.00 in/hr0.0 mm/hr 0.00 in0.0 mm
12:05 PM 68.5°F20.3°C 34.2°F1.2°C 28% Calm Calm -- 29.80 in1009.1 mb 0.00 in0.0 mm 0.00 in/hr0.0 mm/hr 0.00 in0.0 mm
12:10 PM 68.4°F20.2°C 34.0°F1.1°C 28% Calm Calm -- 29.80 in1009.1 mb 0.00 in0.0 mm 0.00 in/hr0.0 mm/hr 0.00 in0.0 mm
12:15 PM 68.0°F20.0°C 33.7°F0.9°C 28% Calm Calm -- 29.80 in1009.1 mb 0.00 in0.0 mm 0.00 in/hr0.0 mm/hr 0.00 in0.0 mm
12:20 PM 67.5°F19.7°C 33.2°F0.7°C 28% Calm Calm -- 29.80 in1009.1 mb 0.00 in0.0 mm 0.00 in/hr0.0 mm/hr 0.00 in0.0 mm
12:25 PM 66.9°F19.4°C 32.8°F0.4°C 28% Calm Calm -- 29.80 in1009.1 mb 0.00 in0.0 mm 0.00 in/hr0.0 mm/hr 0.00 in0.0 mm
12:30 PM 66.7°F19.3°C 32.6°F0.3°C 28% Calm Calm -- 29.80 in1009.1 mb 0.00 in0.0 mm 0.00 in/hr0.0 mm/hr 0.00 in0.0 mm
12:35 PM 66.6°F19.2°C 32.5°F0.3°C 28% Calm Calm -- 29.80 in1009.1 mb 0.00 in0.0 mm 0.00 in/hr0.0 mm/hr 0.00 in0.0 mm
12:40 PM 66.4°F19.1°C 32.3°F0.2°C 28% Calm Calm -- 29.80 in1009.1 mb 0.00 in0.0 mm 0.00 in/hr0.0 mm/hr 0.00 in0.0 mm
12:45 PM 66.4°F19.1°C 32.3°F0.2°C 28% Calm Calm -- 29.80 in1009.1 mb 0.00 in0.0 mm 0.00 in/hr0.0 mm/hr 0.00 in0.0 mm
12:50 PM 66.2°F19.0°C 32.2°F0.1°C 28% Calm Calm -- 29.80 in1009.1 mb 0.00 in0.0 mm 0.00 in/hr0.0 mm/hr 0.00 in0.0 mm
12:55 PM 65.8°F18.8°C 31.9°F-0.1°C 28% Calm Calm -- 29.80 in1009.1 mb 0.00 in0.0 mm 0.00 in/hr0.0 mm/hr 0.00 in0.0 mm
01:00 PM 65.5°F18.6°C 31.5°F-0.3°C 28% Calm Calm -- 29.80 in1009.1 mb 0.00 in0.0 mm 0.00 in/hr0.0 mm/hr 0.00 in0.0 mm
01:05 PM 64.9°F18.3°C 31.1°F-0.5°C 28% Calm Calm -- 29.80 in1009.1 mb 0.00 in0.0 mm 0.00 in/hr0.0 mm/hr 0.00 in0.0 mm
01:10 PM 64.6°F18.1°C 30.8°F-0.7°C 28% Calm Calm -- 29.80 in1009.1 mb 0.00 in0.0 mm 0.00 in/hr0.0 mm/hr 0.00 in0.0 mm
01:15 PM 64.6°F18.1°C 30.8°F-0.7°C 28% Calm Calm -- 29.80 in1009.1 mb 0.00 in0.0 mm 0.00 in/hr0.0 mm/hr 0.00 in0.0 mm
01:20 PM 64.4°F18.0°C 30.6°F-0.8°C 28% Calm Calm -- 29.80 in1009.1 mb 0.00 in0.0 mm 0.00 in/hr0.0 mm/hr 0.00 in0.0 mm
01:25 PM 64.2°F17.9°C 31.3°F-0.4°C 29% Calm Calm -- 29.80 in1009.1 mb 0.00 in0.0 mm 0.00 in/hr0.0 mm/hr 0.00 in0.0 mm
01:30 PM 64.2°F17.9°C 31.3°F-0.4°C 29% Calm Calm -- 29.80 in1009.1 mb 0.00 in0.0 mm 0.00 in/hr0.0 mm/hr 0.00 in0.0 mm
01:35 PM 64.2°F17.9°C 33.0°F0.6°C 31% Calm Calm -- 29.80 in1009.1 mb 0.00 in0.0 mm 0.00 in/hr0.0 mm/hr 0.00 in0.0 mm
01:40 PM 64.0°F17.8°C 32.8°F0.4°C 31% Calm Calm -- 29.80 in1009.1 mb 0.00 in0.0 mm 0.00 in/hr0.0 mm/hr 0.00 in0.0 mm
01:45 PM 63.9°F17.7°C 32.7°F0.4°C 31% Calm Calm -- 29.80 in1009.1 mb 0.00 in0.0 mm 0.00 in/hr0.0 mm/hr 0.00 in0.0 mm
01:50 PM 63.7°F17.6°C 32.5°F0.3°C 31% Calm Calm -- 29.80 in1009.1 mb 0.00 in0.0 mm 0.00 in/hr0.0 mm/hr 0.00 in0.0 mm
01:55 PM 63.5°F17.5°C 32.4°F0.2°C 31% Calm Calm -- 29.80 in1009.1 mb 0.00 in0.0 mm 0.00 in/hr0.0 mm/hr 0.00 in0.0 mm
02:00 PM 63.5°F17.5°C 32.4°F0.2°C 31% Calm Calm -- 29.80 in1009.1 mb 0.00 in0.0 mm 0.00 in/hr0.0 mm/hr 0.00 in0.0 mm
02:05 PM 63.5°F17.5°C 32.4°F0.2°C 31% Calm Calm -- 29.80 in1009.1 mb 0.00 in0.0 mm 0.00 in/hr0.0 mm/hr 0.00 in0.0 mm
02:10 PM 63.7°F17.6°C 32.5°F0.3°C 31% Calm Calm -- 29.80 in1009.1 mb 0.00 in0.0 mm 0.00 in/hr0.0 mm/hr 0.00 in0.0 mm
02:15 PM 63.9°F17.7°C 32.7°F0.4°C 31% Calm Calm -- 29.80 in1009.1 mb 0.00 in0.0 mm 0.00 in/hr0.0 mm/hr 0.00 in0.0 mm
02:20 PM 64.2°F17.9°C 33.0°F0.6°C 31% Calm Calm -- 29.80 in1009.1 mb 0.00 in0.0 mm 0.00 in/hr0.0 mm/hr 0.00 in0.0 mm
02:25 PM 64.6°F18.1°C 33.3°F0.7°C 31% Calm Calm -- 29.80 in1009.1 mb 0.00 in0.0 mm 0.00 in/hr0.0 mm/hr 0.00 in0.0 mm
02:30 PM 64.9°F18.3°C 33.6°F0.9°C 31% Calm Calm -- 29.80 in1009.1 mb 0.00 in0.0 mm 0.00 in/hr0.0 mm/hr 0.00 in0.0 mm
02:35 PM 65.1°F18.4°C 33.8°F1.0°C 31% Calm Calm -- 29.80 in1009.1 mb 0.00 in0.0 mm 0.00 in/hr0.0 mm/hr 0.00 in0.0 mm
02:40 PM 65.5°F18.6°C 34.1°F1.2°C 31% Calm Calm -- 29.80 in1009.1 mb 0.00 in0.0 mm 0.00 in/hr0.0 mm/hr 0.00 in0.0 mm
02:45 PM 65.8°F18.8°C 34.4°F1.3°C 31% Calm Calm -- 29.80 in1009.1 mb 0.00 in0.0 mm 0.00 in/hr0.0 mm/hr 0.00 in0.0 mm
02:50 PM 66.2°F19.0°C 33.9°F1.1°C 30% Calm Calm -- 29.83 in1010.2 mb 0.00 in0.0 mm 0.00 in/hr0.0 mm/hr 0.00 in0.0 mm
02:55 PM 66.7°F19.3°C 34.4°F1.3°C 30% Calm Calm -- 29.83 in1010.2 mb 0.00 in0.0 mm 0.00 in/hr0.0 mm/hr 0.00 in0.0 mm
03:00 PM 67.1°F19.5°C 34.7°F1.5°C 30% Calm Calm -- 29.83 in1010.2 mb 0.00 in0.0 mm 0.00 in/hr0.0 mm/hr 0.00 in0.0 mm
03:05 PM 67.5°F19.7°C 35.0°F1.7°C 30% Calm Calm -- 29.83 in1010.2 mb 0.00 in0.0 mm 0.00 in/hr0.0 mm/hr 0.00 in0.0 mm
03:10 PM 68.0°F20.0°C 35.4°F1.9°C 30% Calm Calm -- 29.83 in1010.2 mb 0.00 in0.0 mm 0.00 in/hr0.0 mm/hr 0.00 in0.0 mm
03:15 PM 68.4°F20.2°C 35.8°F2.1°C 30% Calm Calm -- 29.83 in1010.2 mb 0.00 in0.0 mm 0.00 in/hr0.0 mm/hr 0.00 in0.0 mm
03:20 PM 69.4°F20.8°C 36.7°F2.6°C 30% Calm Calm -- 29.83 in1010.2 mb 0.00 in0.0 mm 0.00 in/hr0.0 mm/hr 0.00 in0.0 mm
03:25 PM 70.7°F21.5°C 37.8°F3.2°C 30% Calm Calm -- 29.83 in1010.2 mb 0.00 in0.0 mm 0.00 in/hr0.0 mm/hr 0.00 in0.0 mm
03:30 PM 71.4°F21.9°C 38.4°F3.6°C 30% Calm Calm -- 29.83 in1010.2 mb 0.00 in0.0 mm 0.00 in/hr0.0 mm/hr 0.00 in0.0 mm
03:35 PM 72.1°F22.3°C 38.2°F3.4°C 29% Calm Calm -- 29.83 in1010.2 mb 0.00 in0.0 mm 0.00 in/hr0.0 mm/hr 0.00 in0.0 mm
03:40 PM 73.6°F23.1°C 39.4°F4.1°C 29% Calm Calm -- 29.83 in1010.2 mb 0.00 in0.0 mm 0.00 in/hr0.0 mm/hr 0.00 in0.0 mm
03:45 PM 75.0°F23.9°C 40.6°F4.8°C 29% Calm Calm -- 29.83 in1010.2 mb 0.00 in0.0 mm 0.00 in/hr0.0 mm/hr 0.00 in0.0 mm
03:50 PM 76.5°F24.7°C 39.1°F3.9°C 26% Calm Calm -- 29.83 in1010.2 mb 0.00 in0.0 mm 0.00 in/hr0.0 mm/hr 0.00 in0.0 mm
03:55 PM 77.0°F25.0°C 39.5°F4.2°C 26% Calm Calm -- 29.83 in1010.2 mb 0.00 in0.0 mm 0.00 in/hr0.0 mm/hr 0.00 in0.0 mm
04:00 PM 77.5°F25.3°C 40.0°F4.4°C 26% Calm Calm -- 29.83 in1010.2 mb 0.00 in0.0 mm 0.00 in/hr0.0 mm/hr 0.00 in0.0 mm
04:10 PM 78.4°F25.8°C 40.8°F4.9°C 26% Calm Calm 2.2 mph3.5 kmh 29.83 in1010.2 mb 0.00 in0.0 mm 0.00 in/hr0.0 mm/hr 0.00 in0.0 mm
04:15 PM 79.3°F26.3°C 40.5°F4.7°C 25% Calm Calm 2.2 mph3.5 kmh 29.83 in1010.2 mb 0.00 in0.0 mm 0.00 in/hr0.0 mm/hr 0.00 in0.0 mm
04:20 PM 79.5°F26.4°C 40.7°F4.8°C 25% 2.7 mph SW4.3 kmh SW 2.7 mph4.3 kmh 29.83 in1010.2 mb 0.00 in0.0 mm 0.00 in/hr0.0 mm/hr 0.00 in0.0 mm
04:25 PM 79.2°F26.2°C 40.4°F4.7°C 25% Calm Calm 2.7 mph4.3 kmh 29.83 in1010.2 mb 0.00 in0.0 mm 0.00 in/hr0.0 mm/hr 0.00 in0.0 mm
04:30 PM 79.0°F26.1°C 40.2°F4.6°C 25% Calm Calm 2.7 mph4.3 kmh 29.83 in1010.2 mb 0.00 in0.0 mm 0.00 in/hr0.0 mm/hr 0.00 in0.0 mm
04:35 PM 78.6°F25.9°C 40.9°F4.9°C 26% 3.1 mph SSW5.0 kmh SSW 3.6 mph5.8 kmh 29.83 in1010.2 mb 0.00 in0.0 mm 0.00 in/hr0.0 mm/hr 0.00 in0.0 mm
04:40 PM 78.4°F25.8°C 40.8°F4.9°C 26% Calm Calm 2.2 mph3.5 kmh 29.83 in1010.2 mb 0.00 in0.0 mm 0.00 in/hr0.0 mm/hr 0.00 in0.0 mm
04:45 PM 79.2°F26.2°C 40.4°F4.7°C 25% 3.1 mph S5.0 kmh S 3.6 mph5.8 kmh 29.83 in1010.2 mb 0.00 in0.0 mm 0.00 in/hr0.0 mm/hr 0.00 in0.0 mm
04:50 PM 79.9°F26.6°C 41.0°F5.0°C 25% 2.2 mph SE3.5 kmh SE 4.9 mph7.9 kmh 29.83 in1010.2 mb 0.00 in0.0 mm 0.00 in/hr0.0 mm/hr 0.00 in0.0 mm
04:55 PM 80.6°F27.0°C 41.6°F5.3°C 25% 2.7 mph S4.3 kmh S 4.9 mph7.9 kmh 29.83 in1010.2 mb 0.00 in0.0 mm 0.00 in/hr0.0 mm/hr 0.00 in0.0 mm
05:00 PM 81.1°F27.3°C 42.0°F5.6°C 25% 2.2 mph SSW3.5 kmh SSW 3.1 mph5.0 kmh 29.83 in1010.2 mb 0.00 in0.0 mm 0.00 in/hr0.0 mm/hr 0.00 in0.0 mm
05:05 PM 81.7°F27.6°C 42.5°F5.8°C 25% 3.1 mph S5.0 kmh S 4.0 mph6.4 kmh 29.83 in1010.2 mb 0.00 in0.0 mm 0.00 in/hr0.0 mm/hr 0.00 in0.0 mm
05:10 PM 81.7°F27.6°C 42.5°F5.8°C 25% 3.6 mph S5.8 kmh S 4.0 mph6.4 kmh 29.83 in1010.2 mb 0.00 in0.0 mm 0.00 in/hr0.0 mm/hr 0.00 in0.0 mm
05:15 PM 81.3°F27.4°C 42.2°F5.7°C 25% 3.6 mph S5.8 kmh S 5.8 mph9.3 kmh 29.83 in1010.2 mb 0.00 in0.0 mm 0.00 in/hr0.0 mm/hr 0.00 in0.0 mm
05:20 PM 81.0°F27.2°C 41.9°F5.5°C 25% Calm Calm 4.0 mph6.4 kmh 29.83 in1010.2 mb 0.00 in0.0 mm 0.00 in/hr0.0 mm/hr 0.00 in0.0 mm
05:25 PM 81.1°F27.3°C 42.0°F5.6°C 25% Calm Calm 4.0 mph6.4 kmh 29.83 in1010.2 mb 0.00 in0.0 mm 0.00 in/hr0.0 mm/hr 0.00 in0.0 mm
05:30 PM 81.7°F27.6°C 42.5°F5.8°C 25% 2.2 mph SW3.5 kmh SW 5.8 mph9.3 kmh 29.83 in1010.2 mb 0.00 in0.0 mm 0.00 in/hr0.0 mm/hr 0.00 in0.0 mm
05:35 PM 82.0°F27.8°C 42.8°F6.0°C 25% 4.0 mph WNW6.4 kmh WNW 5.8 mph9.3 kmh 29.83 in1010.2 mb 0.00 in0.0 mm 0.00 in/hr0.0 mm/hr 0.00 in0.0 mm
05:40 PM 82.0°F27.8°C 42.8°F6.0°C 25% 3.1 mph SSW5.0 kmh SSW 3.6 mph5.8 kmh 29.83 in1010.2 mb 0.00 in0.0 mm 0.00 in/hr0.0 mm/hr 0.00 in0.0 mm
05:45 PM 82.2°F27.9°C 42.9°F6.1°C 25% 3.1 mph S5.0 kmh S 6.3 mph10.1 kmh 29.83 in1010.2 mb 0.00 in0.0 mm 0.00 in/hr0.0 mm/hr 0.00 in0.0 mm
05:50 PM 82.6°F28.1°C 42.2°F5.7°C 24% Calm Calm 6.3 mph10.1 kmh 29.83 in1010.2 mb 0.00 in0.0 mm 0.00 in/hr0.0 mm/hr 0.00 in0.0 mm
05:55 PM 83.3°F28.5°C 42.8°F6.0°C 24% 4.0 mph S6.4 kmh S 6.3 mph10.1 kmh 29.83 in1010.2 mb 0.00 in0.0 mm 0.00 in/hr0.0 mm/hr 0.00 in0.0 mm
06:00 PM 83.7°F28.7°C 43.1°F6.2°C 24% 3.6 mph SSW5.8 kmh SSW 4.0 mph6.4 kmh 29.83 in1010.2 mb 0.00 in0.0 mm 0.00 in/hr0.0 mm/hr 0.00 in0.0 mm
06:05 PM 84.2°F29.0°C 43.5°F6.4°C 24% 2.2 mph SSE3.5 kmh SSE 7.2 mph11.6 kmh 29.83 in1010.2 mb 0.00 in0.0 mm 0.00 in/hr0.0 mm/hr 0.00 in0.0 mm
06:10 PM 84.7°F29.3°C 44.0°F6.7°C 24% 3.1 mph SW5.0 kmh SW 7.2 mph11.6 kmh 29.83 in1010.2 mb 0.00 in0.0 mm 0.00 in/hr0.0 mm/hr 0.00 in0.0 mm
06:15 PM 85.3°F29.6°C 44.4°F6.9°C 24% 2.7 mph SE4.3 kmh SE 7.2 mph11.6 kmh 29.83 in1010.2 mb 0.00 in0.0 mm 0.00 in/hr0.0 mm/hr 0.00 in0.0 mm
06:20 PM 85.3°F29.6°C 44.4°F6.9°C 24% Calm Calm 2.2 mph3.5 kmh 29.83 in1010.2 mb 0.00 in0.0 mm 0.00 in/hr0.0 mm/hr 0.00 in0.0 mm
06:25 PM 85.6°F29.8°C 44.7°F7.1°C 24% 3.1 mph SE5.0 kmh SE 5.8 mph9.3 kmh 29.83 in1010.2 mb 0.00 in0.0 mm 0.00 in/hr0.0 mm/hr 0.00 in0.0 mm
06:30 PM 85.8°F29.9°C 44.9°F7.2°C 24% 4.9 mph WSW7.9 kmh WSW 6.3 mph10.1 kmh 29.83 in1010.2 mb 0.00 in0.0 mm 0.00 in/hr0.0 mm/hr 0.00 in0.0 mm
06:35 PM 85.8°F29.9°C 44.9°F7.2°C 24% 2.2 mph SW3.5 kmh SW 6.3 mph10.1 kmh 29.83 in1010.2 mb 0.00 in0.0 mm 0.00 in/hr0.0 mm/hr 0.00 in0.0 mm
06:40 PM 85.5°F29.7°C 44.6°F7.0°C 24% 2.2 mph S3.5 kmh S 2.7 mph4.3 kmh 29.83 in1010.2 mb 0.00 in0.0 mm 0.00 in/hr0.0 mm/hr 0.00 in0.0 mm
06:45 PM 85.8°F29.9°C 44.9°F7.2°C 24% Calm Calm 5.8 mph9.3 kmh 29.83 in1010.2 mb 0.00 in0.0 mm 0.00 in/hr0.0 mm/hr 0.00 in0.0 mm
06:50 PM 86.7°F30.4°C 45.7°F7.6°C 24% 2.7 mph WSW4.3 kmh WSW 5.8 mph9.3 kmh 29.83 in1010.2 mb 0.00 in0.0 mm 0.00 in/hr0.0 mm/hr 0.00 in0.0 mm
06:55 PM 86.9°F30.5°C 45.8°F7.7°C 24% 2.2 mph NNE3.5 kmh NNE 8.1 mph13.0 kmh 29.83 in1010.2 mb 0.00 in0.0 mm 0.00 in/hr0.0 mm/hr 0.00 in0.0 mm
07:00 PM 86.7°F30.4°C 45.7°F7.6°C 24% 3.6 mph SE5.8 kmh SE 4.9 mph7.9 kmh 29.83 in1010.2 mb 0.00 in0.0 mm 0.00 in/hr0.0 mm/hr 0.00 in0.0 mm
07:05 PM 86.4°F30.2°C 45.4°F7.4°C 24% 4.0 mph SW6.4 kmh SW 7.6 mph12.2 kmh 29.83 in1010.2 mb 0.00 in0.0 mm 0.00 in/hr0.0 mm/hr 0.00 in0.0 mm
07:10 PM 86.4°F30.2°C 45.4°F7.4°C 24% 4.0 mph S6.4 kmh S 7.6 mph12.2 kmh 29.83 in1010.2 mb 0.00 in0.0 mm 0.00 in/hr0.0 mm/hr 0.00 in0.0 mm
07:15 PM 86.5°F30.3°C 45.5°F7.5°C 24% Calm Calm 7.6 mph12.2 kmh 29.83 in1010.2 mb 0.00 in0.0 mm 0.00 in/hr0.0 mm/hr 0.00 in0.0 mm
07:20 PM 87.3°F30.7°C 46.1°F7.8°C 24% 8.3 mph WSW13.4 kmh WSW 8.3 mph13.4 kmh 29.83 in1010.2 mb 0.00 in0.0 mm 0.00 in/hr0.0 mm/hr 0.00 in0.0 mm
07:25 PM 87.1°F30.6°C 46.0°F7.8°C 24% 2.7 mph SSW4.3 kmh SSW 8.3 mph13.4 kmh 29.83 in1010.2 mb 0.00 in0.0 mm 0.00 in/hr0.0 mm/hr 0.00 in0.0 mm
07:30 PM 87.1°F30.6°C 46.0°F7.8°C 24% 2.2 mph SE3.5 kmh SE 8.3 mph13.4 kmh 29.83 in1010.2 mb 0.00 in0.0 mm 0.00 in/hr0.0 mm/hr 0.00 in0.0 mm
07:35 PM 87.6°F30.9°C 46.4°F8.0°C 24% 2.2 mph S3.5 kmh S 8.3 mph13.4 kmh 29.80 in1009.1 mb 0.00 in0.0 mm 0.00 in/hr0.0 mm/hr 0.00 in0.0 mm
07:40 PM 88.5°F31.4°C 46.0°F7.8°C 23% 2.2 mph S3.5 kmh S 2.2 mph3.5 kmh 29.80 in1009.1 mb 0.00 in0.0 mm 0.00 in/hr0.0 mm/hr 0.00 in0.0 mm
07:45 PM 88.7°F31.5°C 46.2°F7.9°C 23% 2.2 mph S3.5 kmh S 2.2 mph3.5 kmh 29.80 in1009.1 mb 0.00 in0.0 mm 0.00 in/hr0.0 mm/hr 0.00 in0.0 mm
07:50 PM 88.7°F31.5°C 46.2°F7.9°C 23% 2.2 mph S3.5 kmh S 2.2 mph3.5 kmh 29.83 in1010.2 mb 0.00 in0.0 mm 0.00 in/hr0.0 mm/hr 0.00 in0.0 mm
07:55 PM 88.3°F31.3°C 45.9°F7.7°C 23% 2.2 mph S3.5 kmh S 2.2 mph3.5 kmh 29.83 in1010.2 mb 0.00 in0.0 mm 0.00 in/hr0.0 mm/hr 0.00 in0.0 mm
08:00 PM 88.0°F31.1°C 45.6°F7.6°C 23% 2.2 mph S3.5 kmh S 2.2 mph3.5 kmh 29.83 in1010.2 mb 0.00 in0.0 mm 0.00 in/hr0.0 mm/hr 0.00 in0.0 mm
08:05 PM 87.8°F31.0°C 45.4°F7.4°C 23% 2.2 mph S3.5 kmh S 2.2 mph3.5 kmh 29.83 in1010.2 mb 0.00 in0.0 mm 0.00 in/hr0.0 mm/hr 0.00 in0.0 mm
08:10 PM 88.3°F31.3°C 45.9°F7.7°C 23% 2.2 mph S3.5 kmh S 2.2 mph3.5 kmh 29.83 in1010.2 mb 0.00 in0.0 mm 0.00 in/hr0.0 mm/hr 0.00 in0.0 mm
08:15 PM 88.3°F31.3°C 45.9°F7.7°C 23% 2.2 mph S3.5 kmh S 2.2 mph3.5 kmh 29.83 in1010.2 mb 0.00 in0.0 mm 0.00 in/hr0.0 mm/hr 0.00 in0.0 mm
08:20 PM 88.2°F31.2°C 45.7°F7.6°C 23% 2.2 mph S3.5 kmh S 2.2 mph3.5 kmh 29.83 in1010.2 mb 0.00 in0.0 mm 0.00 in/hr0.0 mm/hr 0.00 in0.0 mm
08:25 PM 87.8°F31.0°C 45.4°F7.4°C 23% 2.2 mph S3.5 kmh S 2.2 mph3.5 kmh 29.83 in1010.2 mb 0.00 in0.0 mm 0.00 in/hr0.0 mm/hr 0.00 in0.0 mm
08:30 PM 87.8°F31.0°C 45.4°F7.4°C 23% 3.1 mph WSW5.0 kmh WSW 4.9 mph7.9 kmh 29.83 in1010.2 mb 0.00 in0.0 mm 0.00 in/hr0.0 mm/hr 0.00 in0.0 mm
08:35 PM 87.6°F30.9°C 46.4°F8.0°C 24% 3.1 mph N5.0 kmh N 7.6 mph12.2 kmh 29.83 in1010.2 mb 0.00 in0.0 mm 0.00 in/hr0.0 mm/hr 0.00 in0.0 mm
08:40 PM 87.6°F30.9°C 46.4°F8.0°C 24% 3.6 mph SW5.8 kmh SW 3.6 mph5.8 kmh 29.83 in1010.2 mb 0.00 in0.0 mm 0.00 in/hr0.0 mm/hr 0.00 in0.0 mm
08:45 PM 87.3°F30.7°C 46.1°F7.8°C 24% 4.0 mph S6.4 kmh S 7.2 mph11.6 kmh 29.83 in1010.2 mb 0.00 in0.0 mm 0.00 in/hr0.0 mm/hr 0.00 in0.0 mm
08:50 PM 87.3°F30.7°C 46.1°F7.8°C 24% 2.2 mph NW3.5 kmh NW 8.1 mph13.0 kmh 29.83 in1010.2 mb 0.00 in0.0 mm 0.00 in/hr0.0 mm/hr 0.00 in0.0 mm
08:55 PM 87.4°F30.8°C 46.3°F7.9°C 24% 3.6 mph W5.8 kmh W 8.1 mph13.0 kmh 29.83 in1010.2 mb 0.00 in0.0 mm 0.00 in/hr0.0 mm/hr 0.00 in0.0 mm
09:00 PM 88.2°F31.2°C 45.7°F7.6°C 23% 4.0 mph SE6.4 kmh SE 4.0 mph6.4 kmh 29.83 in1010.2 mb 0.00 in0.0 mm 0.00 in/hr0.0 mm/hr 0.00 in0.0 mm
09:05 PM 88.3°F31.3°C 45.9°F7.7°C 23% 4.0 mph SE6.4 kmh SE 4.0 mph6.4 kmh 29.83 in1010.2 mb 0.00 in0.0 mm 0.00 in/hr0.0 mm/hr 0.00 in0.0 mm
09:10 PM 88.7°F31.5°C 46.2°F7.9°C 23% 4.0 mph SE6.4 kmh SE 4.0 mph6.4 kmh 29.83 in1010.2 mb 0.00 in0.0 mm 0.00 in/hr0.0 mm/hr 0.00 in0.0 mm
09:15 PM 88.5°F31.4°C 46.0°F7.8°C 23% 4.0 mph SE6.4 kmh SE 4.0 mph6.4 kmh 29.83 in1010.2 mb 0.00 in0.0 mm 0.00 in/hr0.0 mm/hr 0.00 in0.0 mm
09:20 PM 88.2°F31.2°C 45.7°F7.6°C 23% 4.0 mph SE6.4 kmh SE 4.0 mph6.4 kmh 29.83 in1010.2 mb 0.00 in0.0 mm 0.00 in/hr0.0 mm/hr 0.00 in0.0 mm
09:25 PM 87.8°F31.0°C 45.4°F7.4°C 23% 4.0 mph SE6.4 kmh SE 4.0 mph6.4 kmh 29.83 in1010.2 mb 0.00 in0.0 mm 0.00 in/hr0.0 mm/hr 0.00 in0.0 mm
09:30 PM 87.3°F30.7°C 46.1°F7.8°C 24% 4.0 mph SE6.4 kmh SE 4.0 mph6.4 kmh 29.83 in1010.2 mb 0.00 in0.0 mm 0.00 in/hr0.0 mm/hr 0.00 in0.0 mm
09:35 PM 87.3°F30.7°C 46.1°F7.8°C 24% 4.0 mph SE6.4 kmh SE 4.0 mph6.4 kmh 29.83 in1010.2 mb 0.00 in0.0 mm 0.00 in/hr0.0 mm/hr 0.00 in0.0 mm
09:40 PM 88.0°F31.1°C 45.6°F7.6°C 23% 4.0 mph SE6.4 kmh SE 4.0 mph6.4 kmh 29.83 in1010.2 mb 0.00 in0.0 mm 0.00 in/hr0.0 mm/hr 0.00 in0.0 mm
09:45 PM 88.0°F31.1°C 45.6°F7.6°C 23% 4.0 mph SE6.4 kmh SE 4.0 mph6.4 kmh 29.83 in1010.2 mb 0.00 in0.0 mm 0.00 in/hr0.0 mm/hr 0.00 in0.0 mm
09:50 PM 87.6°F30.9°C 46.4°F8.0°C 24% 4.0 mph SE6.4 kmh SE 4.0 mph6.4 kmh 29.80 in1009.1 mb 0.00 in0.0 mm 0.00 in/hr0.0 mm/hr 0.00 in0.0 mm
09:55 PM 88.2°F31.2°C 45.7°F7.6°C 23% 4.0 mph SE6.4 kmh SE 4.0 mph6.4 kmh 29.80 in1009.1 mb 0.00 in0.0 mm 0.00 in/hr0.0 mm/hr 0.00 in0.0 mm
10:00 PM 88.5°F31.4°C 46.0°F7.8°C 23% 4.0 mph SE6.4 kmh SE 4.0 mph6.4 kmh 29.80 in1009.1 mb 0.00 in0.0 mm 0.00 in/hr0.0 mm/hr 0.00 in0.0 mm
10:05 PM 88.9°F31.6°C 46.3°F7.9°C 23% 4.0 mph SE6.4 kmh SE 4.0 mph6.4 kmh 29.80 in1009.1 mb 0.00 in0.0 mm 0.00 in/hr0.0 mm/hr 0.00 in0.0 mm
10:10 PM 88.9°F31.6°C 46.3°F7.9°C 23% 4.0 mph SE6.4 kmh SE 4.0 mph6.4 kmh 29.80 in1009.1 mb 0.00 in0.0 mm 0.00 in/hr0.0 mm/hr 0.00 in0.0 mm
10:15 PM 88.9°F31.6°C 46.3°F7.9°C 23% 4.0 mph SE6.4 kmh SE 4.0 mph6.4 kmh 29.80 in1009.1 mb 0.00 in0.0 mm 0.00 in/hr0.0 mm/hr 0.00 in0.0 mm
10:20 PM 88.7°F31.5°C 46.2°F7.9°C 23% 4.0 mph SE6.4 kmh SE 4.0 mph6.4 kmh 29.80 in1009.1 mb 0.00 in0.0 mm 0.00 in/hr0.0 mm/hr 0.00 in0.0 mm
10:25 PM 88.5°F31.4°C 46.0°F7.8°C 23% 4.0 mph SE6.4 kmh SE 4.0 mph6.4 kmh 29.80 in1009.1 mb 0.00 in0.0 mm 0.00 in/hr0.0 mm/hr 0.00 in0.0 mm
10:30 PM 88.7°F31.5°C 46.2°F7.9°C 23% 4.0 mph SE6.4 kmh SE 4.0 mph6.4 kmh 29.80 in1009.1 mb 0.00 in0.0 mm 0.00 in/hr0.0 mm/hr 0.00 in0.0 mm
10:35 PM 88.5°F31.4°C 46.0°F7.8°C 23% 4.0 mph SE6.4 kmh SE 4.0 mph6.4 kmh 29.80 in1009.1 mb 0.00 in0.0 mm 0.00 in/hr0.0 mm/hr 0.00 in0.0 mm
10:40 PM 88.7°F31.5°C 46.2°F7.9°C 23% 4.0 mph SE6.4 kmh SE 4.0 mph6.4 kmh 29.80 in1009.1 mb 0.00 in0.0 mm 0.00 in/hr0.0 mm/hr 0.00 in0.0 mm
10:45 PM 87.8°F31.0°C 45.4°F7.4°C 23% 4.0 mph SE6.4 kmh SE 4.0 mph6.4 kmh 29.80 in1009.1 mb 0.00 in0.0 mm 0.00 in/hr0.0 mm/hr 0.00 in0.0 mm
10:50 PM 88.2°F31.2°C 45.7°F7.6°C 23% 4.0 mph SE6.4 kmh SE 4.0 mph6.4 kmh 29.80 in1009.1 mb 0.00 in0.0 mm 0.00 in/hr0.0 mm/hr 0.00 in0.0 mm
10:55 PM 88.7°F31.5°C 46.2°F7.9°C 23% 4.0 mph SE6.4 kmh SE 4.0 mph6.4 kmh 29.80 in1009.1 mb 0.00 in0.0 mm 0.00 in/hr0.0 mm/hr 0.00 in0.0 mm
11:00 PM 88.7°F31.5°C 46.2°F7.9°C 23% 4.0 mph SE6.4 kmh SE 4.0 mph6.4 kmh 29.80 in1009.1 mb 0.00 in0.0 mm 0.00 in/hr0.0 mm/hr 0.00 in0.0 mm
11:05 PM 89.1°F31.7°C 46.5°F8.1°C 23% 4.0 mph SE6.4 kmh SE 4.0 mph6.4 kmh 29.80 in1009.1 mb 0.00 in0.0 mm 0.00 in/hr0.0 mm/hr 0.00 in0.0 mm
11:10 PM 88.5°F31.4°C 46.0°F7.8°C 23% 4.0 mph SE6.4 kmh SE 4.0 mph6.4 kmh 29.80 in1009.1 mb 0.00 in0.0 mm 0.00 in/hr0.0 mm/hr 0.00 in0.0 mm
11:15 PM 88.5°F31.4°C 46.0°F7.8°C 23% 4.0 mph SE6.4 kmh SE 4.0 mph6.4 kmh 29.80 in1009.1 mb 0.00 in0.0 mm 0.00 in/hr0.0 mm/hr 0.00 in0.0 mm
11:20 PM 88.7°F31.5°C 46.2°F7.9°C 23% 4.0 mph SE6.4 kmh SE 4.0 mph6.4 kmh 29.80 in1009.1 mb 0.00 in0.0 mm 0.00 in/hr0.0 mm/hr 0.00 in0.0 mm
11:25 PM 88.5°F31.4°C 46.0°F7.8°C 23% 4.0 mph SE6.4 kmh SE 4.0 mph6.4 kmh 29.80 in1009.1 mb 0.00 in0.0 mm 0.00 in/hr0.0 mm/hr 0.00 in0.0 mm
11:30 PM 88.0°F31.1°C 45.6°F7.6°C 23% 4.0 mph SE6.4 kmh SE 4.0 mph6.4 kmh 29.80 in1009.1 mb 0.00 in0.0 mm 0.00 in/hr0.0 mm/hr 0.00 in0.0 mm
11:35 PM 88.0°F31.1°C 45.6°F7.6°C 23% 4.0 mph SE6.4 kmh SE 4.0 mph6.4 kmh 29.80 in1009.1 mb 0.00 in0.0 mm 0.00 in/hr0.0 mm/hr 0.00 in0.0 mm
11:40 PM 88.5°F31.4°C 46.0°F7.8°C 23% 4.0 mph SE6.4 kmh SE 4.0 mph6.4 kmh 29.80 in1009.1 mb 0.00 in0.0 mm 0.00 in/hr0.0 mm/hr 0.00 in0.0 mm
11:45 PM 88.9°F31.6°C 46.3°F7.9°C 23% 4.0 mph SE6.4 kmh SE 4.0 mph6.4 kmh 29.80 in1009.1 mb 0.00 in0.0 mm 0.00 in/hr0.0 mm/hr 0.00 in0.0 mm
11:50 PM 88.9°F31.6°C 46.3°F7.9°C 23% 4.0 mph SE6.4 kmh SE 4.0 mph6.4 kmh 29.80 in1009.1 mb 0.00 in0.0 mm 0.00 in/hr0.0 mm/hr 0.00 in0.0 mm
11:55 PM 89.6°F32.0°C 46.9°F8.3°C 23% 4.0 mph SE6.4 kmh SE 4.0 mph6.4 kmh 29.80 in1009.1 mb 0.00 in0.0 mm 0.00 in/hr0.0 mm/hr 0.00 in0.0 mm